Time,TemperatureF,DewpointF,PressureIn,WindDirection,WindDirectionDegrees,WindSpeedMPH,WindSpeedGustMPH,Humidity,HourlyPrecipIn,Conditions,Clouds,dailyrainin,SoftwareType,DateUTC
2013-02-10 00:04:00,34.5,30.6,30.06,West,273,0.0,1.0,85,0.00,,,0.00,meteohub,2013-02-10 08:04:00,
2013-02-10 00:09:00,34.5,30.7,30.06,West,272,1.0,1.0,86,0.00,,,0.00,meteohub,2013-02-10 08:09:00,
2013-02-10 00:14:00,34.3,30.4,30.06,WSW,246,0.0,1.0,85,0.00,,,0.00,meteohub,2013-02-10 08:14:00,
2013-02-10 00:19:00,34.2,30.4,30.06,WSW,246,0.0,1.0,86,0.00,,,0.00,meteohub,2013-02-10 08:19:00,
2013-02-10 00:24:00,34.0,30.2,30.05,WSW,246,0.0,1.0,86,0.00,,,0.00,meteohub,2013-02-10 08:24:00,
2013-02-10 00:29:00,34.0,30.6,30.05,WSW,246,0.0,1.0,87,0.00,,,0.00,meteohub,2013-02-10 08:29:00,
2013-02-10 00:34:00,33.6,30.2,30.05,WSW,246,0.0,1.0,87,0.00,,,0.00,meteohub,2013-02-10 08:34:00,
2013-02-10 00:39:00,33.8,30.4,30.05,WSW,246,0.0,0.0,87,0.00,,,0.00,meteohub,2013-02-10 08:39:00,
2013-02-10 00:44:00,34.0,30.6,30.05,WSW,246,0.0,0.0,87,0.00,,,0.00,meteohub,2013-02-10 08:44:00,
2013-02-10 00:49:00,33.6,30.2,30.05,WSW,246,0.0,0.0,87,0.00,,,0.00,meteohub,2013-02-10 08:49:00,
2013-02-10 00:54:00,33.6,30.2,30.05,WSW,246,0.0,0.0,87,0.00,,,0.00,meteohub,2013-02-10 08:54:00,
2013-02-10 00:59:00,33.4,30.0,30.05,WSW,246,0.0,1.0,87,0.00,,,0.00,meteohub,2013-02-10 08:59:00,
2013-02-10 01:04:00,33.4,30.0,30.05,WSW,246,0.0,1.0,87,0.00,,,0.00,meteohub,2013-02-10 09:04:00,
2013-02-10 01:09:00,33.4,30.0,30.05,WSW,246,0.0,1.0,87,0.00,,,0.00,meteohub,2013-02-10 09:09:00,
2013-02-10 01:14:00,33.1,29.7,30.05,WSW,246,0.0,1.0,87,0.00,,,0.00,meteohub,2013-02-10 09:14:00,
2013-02-10 01:19:00,32.9,29.7,30.05,WSW,246,0.0,0.0,88,0.00,,,0.00,meteohub,2013-02-10 09:19:00,
2013-02-10 01:24:00,32.7,29.5,30.04,WSW,246,0.0,1.0,88,0.00,,,0.00,meteohub,2013-02-10 09:24:00,
2013-02-10 01:29:00,32.7,29.5,30.04,WSW,246,0.0,1.0,88,0.00,,,0.00,meteohub,2013-02-10 09:29:00,
2013-02-10 01:34:00,32.9,30.0,30.04,WSW,246,0.0,1.0,89,0.00,,,0.00,meteohub,2013-02-10 09:34:00,
2013-02-10 01:40:00,32.9,29.7,30.04,WSW,246,0.0,1.0,88,0.00,,,0.00,meteohub,2013-02-10 09:40:00,
2013-02-10 01:45:00,32.7,29.5,30.04,WSW,246,0.0,1.0,88,0.00,,,0.00,meteohub,2013-02-10 09:45:00,
2013-02-10 01:50:00,32.5,29.3,30.04,WSW,246,1.0,1.0,88,0.00,,,0.00,meteohub,2013-02-10 09:50:00,
2013-02-10 01:55:00,32.7,29.8,30.04,East,80,3.0,3.0,89,0.00,,,0.00,meteohub,2013-02-10 09:55:00,
2013-02-10 02:00:00,32.9,30.0,30.04,ENE,75,0.0,3.0,89,0.00,,,0.00,meteohub,2013-02-10 10:00:00,
2013-02-10 02:05:00,32.9,30.0,30.05,ENE,74,1.0,3.0,89,0.00,,,0.00,meteohub,2013-02-10 10:05:00,
2013-02-10 02:10:00,32.9,29.7,30.05,West,271,0.0,1.0,88,0.00,,,0.00,meteohub,2013-02-10 10:10:00,
2013-02-10 02:15:00,32.7,29.5,30.05,West,273,0.0,1.0,88,0.00,,,0.00,meteohub,2013-02-10 10:15:00,
2013-02-10 02:20:00,32.5,29.7,30.05,West,272,0.0,1.0,89,0.00,,,0.00,meteohub,2013-02-10 10:20:00,
2013-02-10 02:25:00,32.5,29.7,30.05,West,272,0.0,1.0,89,0.00,,,0.00,meteohub,2013-02-10 10:25:00,
2013-02-10 02:30:00,32.4,29.5,30.05,West,271,0.0,1.0,89,0.00,,,0.00,meteohub,2013-02-10 10:30:00,
2013-02-10 02:35:00,32.4,29.5,30.05,West,270,0.0,1.0,89,0.00,,,0.00,meteohub,2013-02-10 10:35:00,
2013-02-10 02:40:00,32.4,29.5,30.05,West,270,0.0,1.0,89,0.00,,,0.00,meteohub,2013-02-10 10:40:00,
2013-02-10 02:45:00,32.4,29.5,30.05,West,270,0.0,1.0,89,0.00,,,0.00,meteohub,2013-02-10 10:45:00,
2013-02-10 02:50:00,32.2,29.3,30.05,West,259,0.0,1.0,89,0.00,,,0.00,meteohub,2013-02-10 10:50:00,
2013-02-10 02:55:00,32.0,29.1,30.05,SSW,192,0.0,1.0,89,0.00,,,0.00,meteohub,2013-02-10 10:55:00,
2013-02-10 03:00:00,31.8,28.9,30.05,SSW,192,0.0,1.0,89,0.00,,,0.00,meteohub,2013-02-10 11:00:00,
2013-02-10 03:05:00,31.8,29.3,30.05,SSW,193,0.0,1.0,90,0.00,,,0.00,meteohub,2013-02-10 11:05:00,
2013-02-10 03:10:00,31.8,29.3,30.05,SSW,192,0.0,1.0,90,0.00,,,0.00,meteohub,2013-02-10 11:10:00,
2013-02-10 03:15:00,31.5,28.9,30.05,SSW,192,0.0,1.0,90,0.00,,,0.00,meteohub,2013-02-10 11:15:00,
2013-02-10 03:20:00,31.5,28.9,30.04,SSW,192,0.0,1.0,90,0.00,,,0.00,meteohub,2013-02-10 11:20:00,
2013-02-10 03:25:00,31.5,28.9,30.04,SSW,192,0.0,1.0,90,0.00,,,0.00,meteohub,2013-02-10 11:25:00,
2013-02-10 03:30:00,31.5,28.9,30.04,SSW,192,0.0,1.0,90,0.00,,,0.00,meteohub,2013-02-10 11:30:00,
2013-02-10 03:35:00,31.3,28.8,30.04,SSW,192,0.0,0.0,90,0.00,,,0.00,meteohub,2013-02-10 11:35:00,
2013-02-10 03:40:00,31.3,28.8,30.04,SSW,192,0.0,0.0,90,0.00,,,0.00,meteohub,2013-02-10 11:40:00,
2013-02-10 03:45:00,31.1,28.8,30.04,SSW,192,0.0,0.0,91,0.00,,,0.00,meteohub,2013-02-10 11:45:00,
2013-02-10 03:50:00,31.3,28.9,30.04,SSW,192,0.0,0.0,91,0.00,,,0.00,meteohub,2013-02-10 11:50:00,
2013-02-10 03:55:00,31.1,28.8,30.04,SSW,192,0.0,0.0,91,0.00,,,0.00,meteohub,2013-02-10 11:55:00,
2013-02-10 04:00:00,31.1,28.8,30.04,ESE,122,0.0,0.0,91,0.00,,,0.00,meteohub,2013-02-10 12:00:00,
2013-02-10 04:05:00,30.9,28.6,30.04,ESE,123,0.0,1.0,91,0.00,,,0.00,meteohub,2013-02-10 12:05:00,
2013-02-10 04:11:00,30.9,28.6,30.04,SSE,161,1.0,1.0,91,0.00,,,0.00,meteohub,2013-02-10 12:11:00,
2013-02-10 04:16:00,30.9,28.6,30.04,SE,132,1.0,1.0,91,0.00,,,0.00,meteohub,2013-02-10 12:16:00,
2013-02-10 04:21:00,30.9,28.6,30.04,SE,132,1.0,1.0,91,0.00,,,0.00,meteohub,2013-02-10 12:21:00,
2013-02-10 04:26:00,31.3,28.9,30.04,SE,132,1.0,1.0,91,0.00,,,0.00,meteohub,2013-02-10 12:26:00,
2013-02-10 04:31:00,31.5,29.1,30.04,NW,310,2.0,2.0,91,0.00,,,0.00,meteohub,2013-02-10 12:31:00,
2013-02-10 04:36:00,31.5,28.9,30.04,NW,308,0.0,3.0,90,0.00,,,0.00,meteohub,2013-02-10 12:36:00,
2013-02-10 04:41:00,31.3,28.8,30.04,SW,223,0.0,3.0,90,0.00,,,0.00,meteohub,2013-02-10 12:41:00,
2013-02-10 04:46:00,31.1,28.6,30.04,SW,223,0.0,2.0,90,0.00,,,0.00,meteohub,2013-02-10 12:46:00,
2013-02-10 04:51:00,30.9,28.4,30.05,SW,223,0.0,2.0,90,0.00,,,0.00,meteohub,2013-02-10 12:51:00,
2013-02-10 04:56:00,30.9,28.6,30.05,SW,223,0.0,1.0,91,0.00,,,0.00,meteohub,2013-02-10 12:56:00,
2013-02-10 05:01:00,30.9,28.6,30.05,SW,223,0.0,1.0,91,0.00,,,0.00,meteohub,2013-02-10 13:01:00,
2013-02-10 05:06:00,30.9,28.6,30.05,SW,223,0.0,1.0,91,0.00,,,0.00,meteohub,2013-02-10 13:06:00,
2013-02-10 05:11:00,30.7,28.4,30.05,SW,223,0.0,1.0,91,0.00,,,0.00,meteohub,2013-02-10 13:11:00,
2013-02-10 05:16:00,30.7,28.4,30.05,SW,223,0.0,1.0,91,0.00,,,0.00,meteohub,2013-02-10 13:16:00,
2013-02-10 05:21:00,30.6,28.2,30.05,SW,225,0.0,1.0,91,0.00,,,0.00,meteohub,2013-02-10 13:21:00,
2013-02-10 05:26:00,30.4,28.0,30.05,SW,225,0.0,1.0,91,0.00,,,0.00,meteohub,2013-02-10 13:26:00,
2013-02-10 05:31:00,30.4,28.0,30.05,SW,225,0.0,1.0,91,0.00,,,0.00,meteohub,2013-02-10 13:31:00,
2013-02-10 05:36:00,30.0,27.7,30.05,SW,224,0.0,0.0,91,0.00,,,0.00,meteohub,2013-02-10 13:36:00,
2013-02-10 05:41:00,30.4,28.4,30.05,SE,143,0.0,1.0,92,0.00,,,0.00,meteohub,2013-02-10 13:41:00,
2013-02-10 05:46:00,30.4,28.4,30.05,SE,142,0.0,1.0,92,0.00,,,0.00,meteohub,2013-02-10 13:46:00,
2013-02-10 05:51:00,30.0,28.0,30.06,SE,144,1.0,1.0,92,0.00,,,0.00,meteohub,2013-02-10 13:51:00,
2013-02-10 05:56:00,30.2,28.2,30.06,SE,144,1.0,1.0,92,0.00,,,0.00,meteohub,2013-02-10 13:56:00,
2013-02-10 06:01:00,30.2,28.2,30.06,SE,144,0.0,1.0,92,0.00,,,0.00,meteohub,2013-02-10 14:01:00,
2013-02-10 06:06:00,30.0,28.0,30.07,South,187,0.0,1.0,92,0.00,,,0.00,meteohub,2013-02-10 14:06:00,
2013-02-10 06:11:00,30.0,28.0,30.07,South,187,1.0,1.0,92,0.00,,,0.00,meteohub,2013-02-10 14:11:00,
2013-02-10 06:16:00,30.0,28.0,30.07,South,187,0.0,1.0,92,0.00,,,0.00,meteohub,2013-02-10 14:16:00,
2013-02-10 06:22:00,30.2,28.2,30.07,South,187,0.0,1.0,92,0.00,,,0.00,meteohub,2013-02-10 14:22:00,
2013-02-10 06:27:00,30.0,28.0,30.07,West,273,0.0,1.0,92,0.00,,,0.00,meteohub,2013-02-10 14:27:00,
2013-02-10 06:32:00,30.0,28.0,30.07,NW,323,2.0,2.0,92,0.00,,,0.00,meteohub,2013-02-10 14:32:00,
2013-02-10 06:37:00,29.8,27.9,30.07,NW,323,0.0,2.0,92,0.00,,,0.00,meteohub,2013-02-10 14:37:00,
2013-02-10 06:42:00,29.8,27.9,30.07,NW,323,0.0,2.0,92,0.00,,,0.00,meteohub,2013-02-10 14:42:00,
2013-02-10 06:47:00,30.0,28.0,30.07,ENE,78,1.0,1.0,92,0.00,,,0.00,meteohub,2013-02-10 14:47:00,
2013-02-10 06:52:00,30.2,28.2,30.07,ENE,78,0.0,2.0,92,0.00,,,0.00,meteohub,2013-02-10 14:52:00,
2013-02-10 06:57:00,30.0,28.0,30.07,ENE,78,0.0,1.0,92,0.00,,,0.00,meteohub,2013-02-10 14:57:00,
2013-02-10 07:02:00,30.0,28.0,30.07,ENE,78,0.0,1.0,92,0.00,,,0.00,meteohub,2013-02-10 15:02:00,
2013-02-10 07:07:00,30.0,28.0,30.08,ENE,78,0.0,1.0,92,0.00,,,0.00,meteohub,2013-02-10 15:07:00,
2013-02-10 07:12:00,30.0,28.0,30.08,ENE,78,0.0,1.0,92,0.00,,,0.00,meteohub,2013-02-10 15:12:00,
2013-02-10 07:17:00,30.0,28.0,30.08,ENE,78,0.0,1.0,92,0.00,,,0.00,meteohub,2013-02-10 15:17:00,
2013-02-10 07:22:00,30.4,28.4,30.09,ENE,78,0.0,1.0,92,0.00,,,0.00,meteohub,2013-02-10 15:22:00,
2013-02-10 07:27:00,30.4,28.4,30.09,ENE,78,1.0,1.0,92,0.00,,,0.00,meteohub,2013-02-10 15:27:00,
2013-02-10 07:32:00,30.7,28.8,30.09,ENE,78,0.0,1.0,92,0.00,,,0.00,meteohub,2013-02-10 15:32:00,
2013-02-10 07:37:00,31.5,29.5,30.09,ENE,78,0.0,1.0,92,0.00,,,0.00,meteohub,2013-02-10 15:37:00,
2013-02-10 07:42:00,32.4,30.4,30.09,ENE,78,0.0,1.0,92,0.00,,,0.00,meteohub,2013-02-10 15:42:00,
2013-02-10 07:47:00,32.9,30.4,30.09,ENE,78,0.0,1.0,90,0.00,,,0.00,meteohub,2013-02-10 15:47:00,
2013-02-10 07:52:00,33.4,30.6,30.09,ESE,116,1.0,1.0,89,0.00,,,0.00,meteohub,2013-02-10 15:52:00,
2013-02-10 07:57:00,33.8,30.4,30.09,ESE,116,1.0,1.0,87,0.00,,,0.00,meteohub,2013-02-10 15:57:00,
2013-02-10 08:02:00,34.0,30.7,30.09,ESE,116,0.0,1.0,88,0.00,,,0.00,meteohub,2013-02-10 16:02:00,
2013-02-10 08:07:00,34.7,31.3,30.09,West,265,2.0,2.0,87,0.00,,,0.00,meteohub,2013-02-10 16:07:00,
2013-02-10 08:12:00,34.5,30.7,30.09,West,265,0.0,2.0,86,0.00,,,0.00,meteohub,2013-02-10 16:12:00,
2013-02-10 08:18:00,34.7,30.9,30.09,SW,228,2.0,2.0,86,0.00,,,0.00,meteohub,2013-02-10 16:18:00,
2013-02-10 08:23:00,35.1,30.9,30.09,SW,226,0.0,2.0,85,0.00,,,0.00,meteohub,2013-02-10 16:23:00,
2013-02-10 08:28:00,36.0,31.8,30.09,SSW,209,0.0,2.0,85,0.00,,,0.00,meteohub,2013-02-10 16:28:00,
2013-02-10 08:33:00,37.2,32.0,30.09,ESE,105,0.0,2.0,81,0.00,,,0.00,meteohub,2013-02-10 16:33:00,
2013-02-10 08:38:00,37.9,32.7,30.09,ESE,105,0.0,1.0,81,0.00,,,0.00,meteohub,2013-02-10 16:38:00,
2013-02-10 08:43:00,38.3,32.4,30.09,ESE,105,0.0,1.0,79,0.00,,,0.00,meteohub,2013-02-10 16:43:00,
2013-02-10 08:48:00,38.7,32.7,30.09,ESE,104,0.0,1.0,79,0.00,,,0.00,meteohub,2013-02-10 16:48:00,
2013-02-10 08:53:00,39.2,32.9,30.08,ESE,104,0.0,1.0,78,0.00,,,0.00,meteohub,2013-02-10 16:53:00,
2013-02-10 08:58:00,39.6,32.9,30.08,SW,222,1.0,0.0,77,0.00,,,0.00,meteohub,2013-02-10 16:58:00,
2013-02-10 09:03:00,40.3,33.6,30.08,SW,233,0.0,2.0,77,0.00,,,0.00,meteohub,2013-02-10 17:03:00,
2013-02-10 09:08:00,41.2,33.8,30.08,SSW,194,0.0,2.0,75,0.00,,,0.00,meteohub,2013-02-10 17:08:00,
2013-02-10 09:13:00,41.7,33.6,30.08,SSW,194,0.0,2.0,73,0.00,,,0.00,meteohub,2013-02-10 17:13:00,
2013-02-10 09:18:00,42.3,33.8,30.08,SW,223,0.0,2.0,72,0.00,,,0.00,meteohub,2013-02-10 17:18:00,
2013-02-10 09:23:00,43.0,34.9,30.07,SSW,210,0.0,2.0,73,0.00,,,0.00,meteohub,2013-02-10 17:23:00,
2013-02-10 09:28:00,43.7,34.5,30.07,South,188,0.0,1.0,70,0.00,,,0.00,meteohub,2013-02-10 17:28:00,
2013-02-10 09:33:00,44.2,34.0,30.07,SW,229,0.0,1.0,67,0.00,,,0.00,meteohub,2013-02-10 17:33:00,
2013-02-10 09:38:00,45.0,35.1,30.07,SW,219,0.0,2.0,68,0.00,,,0.00,meteohub,2013-02-10 17:38:00,
2013-02-10 09:43:00,45.9,35.6,30.07,SW,218,0.0,2.0,67,0.00,,,0.00,meteohub,2013-02-10 17:43:00,
2013-02-10 09:48:00,46.9,35.1,30.07,SW,219,0.0,1.0,63,0.00,,,0.00,meteohub,2013-02-10 17:48:00,
2013-02-10 09:53:00,47.3,33.3,30.07,SSW,199,0.0,2.0,58,0.00,,,0.00,meteohub,2013-02-10 17:53:00,
2013-02-10 09:58:00,47.5,33.4,30.07,SE,144,0.0,2.0,58,0.00,,,0.00,meteohub,2013-02-10 17:58:00,
2013-02-10 10:03:00,47.8,33.3,30.07,SW,215,1.0,2.0,57,0.00,,,0.00,meteohub,2013-02-10 18:03:00,
2013-02-10 10:09:00,48.0,33.4,30.07,SSW,194,0.0,2.0,57,0.00,,,0.00,meteohub,2013-02-10 18:09:00,
2013-02-10 10:14:00,48.4,34.3,30.07,SSW,213,0.0,3.0,58,0.00,,,0.00,meteohub,2013-02-10 18:14:00,
2013-02-10 10:19:00,48.7,34.2,30.07,East,83,1.0,3.0,57,0.00,,,0.00,meteohub,2013-02-10 18:19:00,
2013-02-10 10:24:00,49.5,34.3,30.07,West,277,0.0,3.0,56,0.00,,,0.00,meteohub,2013-02-10 18:24:00,
2013-02-10 10:29:00,48.9,34.0,30.07,West,271,0.0,3.0,56,0.00,,,0.00,meteohub,2013-02-10 18:29:00,
2013-02-10 10:34:00,49.5,34.3,30.07,SW,230,1.0,3.0,56,0.00,,,0.00,meteohub,2013-02-10 18:34:00,
2013-02-10 10:39:00,50.2,34.7,30.06,SE,138,1.0,3.0,55,0.00,,,0.00,meteohub,2013-02-10 18:39:00,
2013-02-10 10:44:00,51.1,35.1,30.06,SSW,205,1.0,2.0,54,0.00,,,0.00,meteohub,2013-02-10 18:44:00,
2013-02-10 10:49:00,51.6,35.1,30.06,SW,236,1.0,3.0,53,0.00,,,0.00,meteohub,2013-02-10 18:49:00,
2013-02-10 10:54:00,52.0,35.8,30.06,WSW,238,1.0,4.0,54,0.00,,,0.00,meteohub,2013-02-10 18:54:00,
2013-02-10 10:59:00,52.0,35.4,30.06,SSW,200,1.0,4.0,53,0.00,,,0.00,meteohub,2013-02-10 18:59:00,
2013-02-10 11:04:00,52.3,35.8,30.06,West,280,2.0,5.0,53,0.00,,,0.00,meteohub,2013-02-10 19:04:00,
2013-02-10 11:09:00,52.2,36.0,30.05,West,271,0.0,6.0,54,0.00,,,0.00,meteohub,2013-02-10 19:09:00,
2013-02-10 11:14:00,52.9,36.7,30.05,SW,236,3.0,6.0,54,0.00,,,0.00,meteohub,2013-02-10 19:14:00,
2013-02-10 11:19:00,52.5,36.0,30.05,SSW,205,2.0,6.0,53,0.00,,,0.00,meteohub,2013-02-10 19:19:00,
2013-02-10 11:24:00,52.9,36.1,30.05,SE,138,3.0,5.0,53,0.00,,,0.00,meteohub,2013-02-10 19:24:00,
2013-02-10 11:29:00,53.4,36.7,30.05,ESE,121,1.0,5.0,53,0.00,,,0.00,meteohub,2013-02-10 19:29:00,
2013-02-10 11:34:00,54.1,36.9,30.05,SSE,167,3.0,5.0,52,0.00,,,0.00,meteohub,2013-02-10 19:34:00,
2013-02-10 11:39:00,54.3,37.6,30.04,West,275,4.0,4.0,53,0.00,,,0.00,meteohub,2013-02-10 19:39:00,
2013-02-10 11:44:00,54.7,37.4,30.04,West,265,4.0,4.0,52,0.00,,,0.00,meteohub,2013-02-10 19:44:00,
2013-02-10 11:49:00,54.7,37.4,30.04,West,263,1.0,4.0,52,0.00,,,0.00,meteohub,2013-02-10 19:49:00,
2013-02-10 11:54:00,55.8,37.9,30.04,WSW,245,3.0,4.0,51,0.00,,,0.00,meteohub,2013-02-10 19:54:00,
2013-02-10 12:00:00,56.1,38.3,30.04,WSW,237,3.0,4.0,51,0.00,,,0.00,meteohub,2013-02-10 20:00:00,
2013-02-10 12:05:00,56.5,38.1,30.02,West,265,3.0,5.0,50,0.00,,,0.00,meteohub,2013-02-10 20:05:00,
2013-02-10 12:10:00,57.4,38.3,30.02,South,174,5.0,5.0,49,0.00,,,0.00,meteohub,2013-02-10 20:10:00,
2013-02-10 12:15:00,57.4,38.8,30.02,SW,236,3.0,6.0,50,0.00,,,0.00,meteohub,2013-02-10 20:15:00,
2013-02-10 12:20:00,57.2,38.3,30.01,WSW,252,1.0,6.0,49,0.00,,,0.00,meteohub,2013-02-10 20:20:00,
2013-02-10 12:25:00,57.2,38.3,30.01,SW,236,4.0,6.0,49,0.00,,,0.00,meteohub,2013-02-10 20:25:00,
2013-02-10 12:30:00,57.7,37.6,30.01,SW,218,4.0,5.0,47,0.00,,,0.00,meteohub,2013-02-10 20:30:00,
2013-02-10 12:35:00,57.4,38.3,30.01,SSW,211,2.0,6.0,49,0.00,,,0.00,meteohub,2013-02-10 20:35:00,
2013-02-10 12:40:00,57.9,38.3,30.01,SW,225,2.0,6.0,48,0.00,,,0.00,meteohub,2013-02-10 20:40:00,
2013-02-10 12:45:00,58.3,38.1,30.01,WSW,246,6.0,6.0,47,0.00,,,0.00,meteohub,2013-02-10 20:45:00,
2013-02-10 12:50:00,58.5,38.8,30.00,South,178,1.0,7.0,48,0.00,,,0.00,meteohub,2013-02-10 20:50:00,
2013-02-10 12:55:00,58.6,38.5,30.00,WSW,248,2.0,7.0,47,0.00,,,0.00,meteohub,2013-02-10 20:55:00,
2013-02-10 13:00:00,58.6,37.9,30.00,SSW,197,0.0,7.0,46,0.00,,,0.00,meteohub,2013-02-10 21:00:00,
2013-02-10 13:05:00,59.4,39.2,30.00,WNW,290,2.0,7.0,47,0.00,,,0.00,meteohub,2013-02-10 21:05:00,
2013-02-10 13:10:00,59.7,38.3,30.00,SW,233,5.0,5.0,45,0.00,,,0.00,meteohub,2013-02-10 21:10:00,
2013-02-10 13:15:00,59.4,38.7,30.00,SW,221,1.0,5.0,46,0.00,,,0.00,meteohub,2013-02-10 21:15:00,
2013-02-10 13:20:00,59.7,38.3,29.99,South,191,3.0,5.0,45,0.00,,,0.00,meteohub,2013-02-10 21:20:00,
2013-02-10 13:26:00,60.3,38.8,29.99,South,186,3.0,5.0,45,0.00,,,0.00,meteohub,2013-02-10 21:26:00,
2013-02-10 13:31:00,60.6,39.7,29.99,West,281,4.0,5.0,46,0.00,,,0.00,meteohub,2013-02-10 21:31:00,
2013-02-10 13:36:00,60.6,38.7,29.98,WNW,282,2.0,4.0,44,0.00,,,0.00,meteohub,2013-02-10 21:36:00,
2013-02-10 13:41:00,61.2,40.3,29.98,South,188,2.0,4.0,46,0.00,,,0.00,meteohub,2013-02-10 21:41:00,
2013-02-10 13:46:00,61.5,39.4,29.98,South,174,2.0,4.0,44,0.00,,,0.00,meteohub,2013-02-10 21:46:00,
2013-02-10 13:51:00,62.2,40.1,29.97,SW,214,3.0,5.0,44,0.00,,,0.00,meteohub,2013-02-10 21:51:00,
2013-02-10 13:56:00,62.6,39.7,29.97,SSW,207,3.0,5.0,43,0.00,,,0.00,meteohub,2013-02-10 21:56:00,
2013-02-10 14:01:00,62.8,39.4,29.97,SSW,209,4.0,5.0,42,0.00,,,0.00,meteohub,2013-02-10 22:01:00,
2013-02-10 14:06:00,62.4,39.0,29.97,WSW,245,2.0,7.0,42,0.00,,,0.00,meteohub,2013-02-10 22:06:00,
2013-02-10 14:11:00,62.8,39.4,29.97,SW,227,5.0,7.0,42,0.00,,,0.00,meteohub,2013-02-10 22:11:00,
2013-02-10 14:16:00,63.5,37.4,29.97,WNW,282,2.0,7.0,38,0.00,,,0.00,meteohub,2013-02-10 22:16:00,
2013-02-10 14:21:00,63.9,37.0,29.96,WSW,246,2.0,9.0,37,0.00,,,0.00,meteohub,2013-02-10 22:21:00,
2013-02-10 14:26:00,64.2,36.7,29.96,West,259,1.0,9.0,36,0.00,,,0.00,meteohub,2013-02-10 22:26:00,
2013-02-10 14:31:00,64.6,36.3,29.96,South,191,3.0,13.0,35,0.00,,,0.00,meteohub,2013-02-10 22:31:00,
2013-02-10 14:36:00,64.8,35.8,29.96,West,271,3.0,13.0,34,0.00,,,0.00,meteohub,2013-02-10 22:36:00,
2013-02-10 14:41:00,64.6,37.0,29.96,SSW,194,4.0,9.0,36,0.00,,,0.00,meteohub,2013-02-10 22:41:00,
2013-02-10 14:46:00,64.9,37.4,29.96,West,259,3.0,7.0,36,0.00,,,0.00,meteohub,2013-02-10 22:46:00,
2013-02-10 14:51:00,64.6,38.5,29.96,SW,224,3.0,7.0,38,0.00,,,0.00,meteohub,2013-02-10 22:51:00,
2013-02-10 14:56:00,64.8,36.5,29.96,WNW,288,2.0,7.0,35,0.00,,,0.00,meteohub,2013-02-10 22:56:00,
2013-02-10 15:02:00,64.8,37.9,29.96,SW,229,5.0,5.0,37,0.00,,,0.00,meteohub,2013-02-10 23:02:00,
2013-02-10 15:07:00,64.6,37.8,29.96,SW,217,6.0,7.0,37,0.00,,,0.00,meteohub,2013-02-10 23:07:00,
2013-02-10 15:12:00,64.2,42.4,29.96,SW,214,6.0,7.0,45,0.00,,,0.00,meteohub,2013-02-10 23:12:00,
2013-02-10 15:17:00,64.0,42.3,29.96,WSW,254,5.0,7.0,45,0.00,,,0.00,meteohub,2013-02-10 23:17:00,
2013-02-10 15:22:00,64.6,42.8,29.96,SW,227,7.0,7.0,45,0.00,,,0.00,meteohub,2013-02-10 23:22:00,
2013-02-10 15:27:00,64.0,44.4,29.96,WNW,298,2.0,10.0,49,0.00,,,0.00,meteohub,2013-02-10 23:27:00,
2013-02-10 15:32:00,63.7,44.8,29.96,WSW,242,2.0,10.0,50,0.00,,,0.00,meteohub,2013-02-10 23:32:00,
2013-02-10 15:37:00,63.7,45.7,29.96,SSW,211,6.0,10.0,52,0.00,,,0.00,meteohub,2013-02-10 23:37:00,
2013-02-10 15:42:00,62.8,46.4,29.96,SSW,200,3.0,11.0,55,0.00,,,0.00,meteohub,2013-02-10 23:42:00,
2013-02-10 15:47:00,62.1,46.6,29.96,SSE,152,4.0,11.0,57,0.00,,,0.00,meteohub,2013-02-10 23:47:00,
2013-02-10 15:52:00,61.9,46.4,29.97,SSW,209,3.0,11.0,57,0.00,,,0.00,meteohub,2013-02-10 23:52:00,
2013-02-10 15:57:00,62.1,46.6,29.97,SSE,163,3.0,11.0,57,0.00,,,0.00,meteohub,2013-02-10 23:57:00,
2013-02-10 16:03:00,61.5,46.6,29.97,WSW,250,3.0,10.0,58,0.00,,,0.00,meteohub,2013-02-11 00:03:00,
2013-02-10 16:08:00,61.2,46.2,29.97,South,172,4.0,10.0,58,0.00,,,0.00,meteohub,2013-02-11 00:08:00,
2013-02-10 16:13:00,61.0,46.6,29.97,SW,227,2.0,10.0,59,0.00,,,0.00,meteohub,2013-02-11 00:13:00,
2013-02-10 16:18:00,60.4,46.0,29.97,SSW,196,2.0,9.0,59,0.00,,,0.00,meteohub,2013-02-11 00:18:00,
2013-02-10 16:23:00,60.3,45.5,29.97,SW,225,4.0,9.0,58,0.00,,,0.00,meteohub,2013-02-11 00:23:00,
2013-02-10 16:28:00,59.5,44.8,29.97,SE,141,2.0,7.0,58,0.00,,,0.00,meteohub,2013-02-11 00:28:00,
2013-02-10 16:33:00,59.4,44.6,29.97,South,175,3.0,7.0,58,0.00,,,0.00,meteohub,2013-02-11 00:33:00,
2013-02-10 16:38:00,59.0,44.2,29.97,SW,214,2.0,7.0,58,0.00,,,0.00,meteohub,2013-02-11 00:38:00,
2013-02-10 16:43:00,58.6,43.9,29.97,South,179,4.0,7.0,58,0.00,,,0.00,meteohub,2013-02-11 00:43:00,
2013-02-10 16:48:00,58.5,44.2,29.97,South,191,3.0,6.0,59,0.00,,,0.00,meteohub,2013-02-11 00:48:00,
2013-02-10 16:53:00,57.6,43.0,29.98,SW,227,2.0,6.0,58,0.00,,,0.00,meteohub,2013-02-11 00:53:00,
2013-02-10 16:58:00,57.0,42.8,29.98,SW,232,0.0,5.0,59,0.00,,,0.00,meteohub,2013-02-11 00:58:00,
2013-02-10 17:03:00,56.8,42.6,29.98,SW,236,1.0,4.0,59,0.00,,,0.00,meteohub,2013-02-11 01:03:00,
2013-02-10 17:08:00,56.3,42.1,29.98,WSW,245,1.0,3.0,59,0.00,,,0.00,meteohub,2013-02-11 01:08:00,
2013-02-10 17:13:00,56.1,41.5,29.98,West,260,3.0,3.0,58,0.00,,,0.00,meteohub,2013-02-11 01:13:00,
2013-02-10 17:18:00,55.6,41.0,29.98,West,261,1.0,4.0,58,0.00,,,0.00,meteohub,2013-02-11 01:18:00,
2013-02-10 17:23:00,55.4,40.8,29.98,SW,229,0.0,4.0,58,0.00,,,0.00,meteohub,2013-02-11 01:23:00,
2013-02-10 17:28:00,55.0,40.5,29.98,West,269,1.0,4.0,58,0.00,,,0.00,meteohub,2013-02-11 01:28:00,
2013-02-10 17:33:00,54.7,40.6,29.98,WNW,292,1.0,3.0,59,0.00,,,0.00,meteohub,2013-02-11 01:33:00,
2013-02-10 17:38:00,54.3,40.3,29.99,WNW,292,0.0,3.0,59,0.00,,,0.00,meteohub,2013-02-11 01:38:00,
2013-02-10 17:43:00,54.1,40.1,29.99,WNW,291,1.0,2.0,59,0.00,,,0.00,meteohub,2013-02-11 01:43:00,
2013-02-10 17:49:00,53.8,39.7,29.99,West,272,2.0,2.0,59,0.00,,,0.00,meteohub,2013-02-11 01:49:00,
2013-02-10 17:54:00,53.4,39.9,29.99,West,271,0.0,2.0,60,0.00,,,0.00,meteohub,2013-02-11 01:54:00,
2013-02-10 17:59:00,53.1,39.9,29.99,West,272,0.0,2.0,61,0.00,,,0.00,meteohub,2013-02-11 01:59:00,
2013-02-10 18:04:00,52.9,40.6,29.99,West,275,2.0,2.0,63,0.00,,,0.00,meteohub,2013-02-11 02:04:00,
2013-02-10 18:09:00,52.3,41.4,29.99,NE,46,2.0,2.0,66,0.00,,,0.00,meteohub,2013-02-11 02:09:00,
2013-02-10 18:14:00,51.6,41.4,29.99,NE,39,1.0,2.0,68,0.00,,,0.00,meteohub,2013-02-11 02:14:00,
2013-02-10 18:19:00,51.3,41.4,29.99,NNE,32,1.0,2.0,69,0.00,,,0.00,meteohub,2013-02-11 02:19:00,
2013-02-10 18:24:00,50.9,41.5,30.00,NNE,28,1.0,2.0,70,0.00,,,0.00,meteohub,2013-02-11 02:24:00,
2013-02-10 18:29:00,50.5,41.2,30.00,NNW,336,0.0,2.0,70,0.00,,,0.00,meteohub,2013-02-11 02:29:00,
2013-02-10 18:34:00,50.4,41.4,30.00,West,260,2.0,2.0,71,0.00,,,0.00,meteohub,2013-02-11 02:34:00,
2013-02-10 18:39:00,49.6,40.6,30.00,West,261,1.0,2.0,71,0.00,,,0.00,meteohub,2013-02-11 02:39:00,
2013-02-10 18:44:00,48.9,40.3,30.00,West,264,0.0,2.0,72,0.00,,,0.00,meteohub,2013-02-11 02:44:00,
2013-02-10 18:49:00,48.6,40.3,30.00,West,265,1.0,2.0,73,0.00,,,0.00,meteohub,2013-02-11 02:49:00,
2013-02-10 18:54:00,48.2,40.3,30.01,NW,307,1.0,2.0,74,0.00,,,0.00,meteohub,2013-02-11 02:54:00,
2013-02-10 18:59:00,47.5,39.9,30.01,NW,307,1.0,2.0,75,0.00,,,0.00,meteohub,2013-02-11 02:59:00,
2013-02-10 19:04:00,47.1,39.9,30.01,NW,307,0.0,2.0,76,0.00,,,0.00,meteohub,2013-02-11 03:04:00,
2013-02-10 19:09:00,46.6,39.4,30.01,NW,307,0.0,2.0,76,0.00,,,0.00,meteohub,2013-02-11 03:09:00,
2013-02-10 19:14:00,46.2,39.7,30.01,NW,307,0.0,1.0,78,0.00,,,0.00,meteohub,2013-02-11 03:14:00,
2013-02-10 19:19:00,45.9,39.4,30.01,NW,307,0.0,1.0,78,0.00,,,0.00,meteohub,2013-02-11 03:19:00,
2013-02-10 19:24:00,45.7,39.2,30.01,NW,309,0.0,1.0,78,0.00,,,0.00,meteohub,2013-02-11 03:24:00,
2013-02-10 19:29:00,45.1,39.0,30.01,NW,310,0.0,2.0,79,0.00,,,0.00,meteohub,2013-02-11 03:29:00,
2013-02-10 19:34:00,45.0,39.2,30.01,SE,130,1.0,2.0,80,0.00,,,0.00,meteohub,2013-02-11 03:34:00,
2013-02-10 19:39:00,45.0,39.2,30.01,SE,130,0.0,1.0,80,0.00,,,0.00,meteohub,2013-02-11 03:39:00,
2013-02-10 19:44:00,44.8,39.0,30.01,SE,129,0.0,1.0,80,0.00,,,0.00,meteohub,2013-02-11 03:44:00,
2013-02-10 19:49:00,44.4,39.0,30.01,SE,129,0.0,1.0,81,0.00,,,0.00,meteohub,2013-02-11 03:49:00,
2013-02-10 19:54:00,44.2,39.0,30.01,SE,129,1.0,1.0,82,0.00,,,0.00,meteohub,2013-02-11 03:54:00,
2013-02-10 19:59:00,44.1,38.8,30.01,SE,141,1.0,1.0,82,0.00,,,0.00,meteohub,2013-02-11 03:59:00,
2013-02-10 20:05:00,43.9,38.7,30.01,SE,141,0.0,6.0,82,0.00,,,0.00,meteohub,2013-02-11 04:05:00,
2013-02-10 20:10:00,43.5,38.7,30.01,West,280,1.0,6.0,83,0.00,,,0.00,meteohub,2013-02-11 04:10:00,
2013-02-10 20:15:00,43.3,38.5,30.01,WNW,283,1.0,6.0,83,0.00,,,0.00,meteohub,2013-02-11 04:15:00,
2013-02-10 20:20:00,43.2,38.3,30.01,ENE,59,0.0,5.0,83,0.00,,,0.00,meteohub,2013-02-11 04:20:00,
2013-02-10 20:25:00,43.0,38.5,30.01,ENE,59,0.0,4.0,84,0.00,,,0.00,meteohub,2013-02-11 04:25:00,
2013-02-10 20:30:00,42.6,38.1,30.01,ENE,59,0.0,3.0,84,0.00,,,0.00,meteohub,2013-02-11 04:30:00,
2013-02-10 20:35:00,42.6,38.1,30.02,West,275,1.0,3.0,84,0.00,,,0.00,meteohub,2013-02-11 04:35:00,
2013-02-10 20:40:00,42.4,38.3,30.02,NNE,32,0.0,4.0,85,0.00,,,0.00,meteohub,2013-02-11 04:40:00,
2013-02-10 20:45:00,42.4,38.3,30.02,WSW,254,0.0,4.0,85,0.00,,,0.00,meteohub,2013-02-11 04:45:00,
2013-02-10 20:50:00,42.3,38.1,30.02,North,349,0.0,3.0,85,0.00,,,0.00,meteohub,2013-02-11 04:50:00,
2013-02-10 20:55:00,42.1,37.9,30.02,ENE,60,4.0,4.0,85,0.00,,,0.00,meteohub,2013-02-11 04:55:00,
2013-02-10 21:00:00,42.3,38.1,30.02,SSE,157,1.0,3.0,85,0.00,,,0.00,meteohub,2013-02-11 05:00:00,
2013-02-10 21:04:00,42.3,38.1,30.02,ESE,108,0.0,2.0,85,0.00,,,0.00,meteohub,2013-02-11 05:04:00,
2013-02-10 21:05:00,42.3,38.1,30.02,ESE,108,1.0,2.0,85,0.00,,,0.00,meteohub,2013-02-11 05:05:00,
2013-02-10 21:10:00,42.3,38.1,30.02,SSE,160,1.0,2.0,85,0.00,,,0.00,meteohub,2013-02-11 05:10:00,
2013-02-10 21:15:00,42.1,37.9,30.02,NW,323,4.0,4.0,85,0.00,,,0.00,meteohub,2013-02-11 05:15:00,
2013-02-10 21:21:00,41.9,37.9,30.02,SE,134,0.0,2.0,86,0.00,,,0.00,meteohub,2013-02-11 05:21:00,
2013-02-10 21:26:00,41.9,37.9,30.02,ESE,121,1.0,1.0,86,0.00,,,0.00,meteohub,2013-02-11 05:26:00,
2013-02-10 21:31:00,41.7,37.8,30.02,SSE,165,0.0,2.0,86,0.00,,,0.00,meteohub,2013-02-11 05:31:00,
2013-02-10 21:36:00,41.5,37.4,30.02,NE,42,2.0,2.0,85,0.00,,,0.00,meteohub,2013-02-11 05:36:00,
2013-02-10 21:41:00,41.5,37.6,30.02,WSW,257,3.0,3.0,86,0.00,,,0.00,meteohub,2013-02-11 05:41:00,
2013-02-10 21:46:00,41.4,37.6,30.02,NE,35,0.0,2.0,86,0.00,,,0.00,meteohub,2013-02-11 05:46:00,
2013-02-10 21:51:00,41.2,37.4,30.02,NE,35,0.0,2.0,86,0.00,,,0.00,meteohub,2013-02-11 05:51:00,
2013-02-10 21:56:00,41.0,37.2,30.02,NNW,333,2.0,2.0,86,0.00,,,0.00,meteohub,2013-02-11 05:56:00,
2013-02-10 22:01:00,40.6,36.9,30.02,SSW,211,0.0,2.0,86,0.00,,,0.00,meteohub,2013-02-11 06:01:00,
2013-02-10 22:06:00,40.6,36.9,30.03,NE,49,0.0,2.0,86,0.00,,,0.00,meteohub,2013-02-11 06:06:00,
2013-02-10 22:11:00,40.5,36.9,30.03,SE,132,0.0,1.0,87,0.00,,,0.00,meteohub,2013-02-11 06:11:00,
2013-02-10 22:16:00,40.3,36.7,30.03,SSW,200,1.0,2.0,87,0.00,,,0.00,meteohub,2013-02-11 06:16:00,
2013-02-10 22:21:00,40.1,36.5,30.03,ESE,102,1.0,2.0,87,0.00,,,0.00,meteohub,2013-02-11 06:21:00,
2013-02-10 22:26:00,40.1,36.5,30.03,East,83,2.0,2.0,87,0.00,,,0.00,meteohub,2013-02-11 06:26:00,
2013-02-10 22:31:00,40.3,36.7,30.03,NNW,332,0.0,1.0,87,0.00,,,0.00,meteohub,2013-02-11 06:31:00,
2013-02-10 22:36:00,39.9,36.3,30.03,SW,223,2.0,0.0,87,0.00,,,0.00,meteohub,2013-02-11 06:36:00,
2013-02-10 22:41:00,39.7,36.1,30.03,South,187,1.0,1.0,87,0.00,,,0.00,meteohub,2013-02-11 06:41:00,
2013-02-10 22:46:00,39.6,36.0,30.03,ENE,65,1.0,2.0,87,0.00,,,0.00,meteohub,2013-02-11 06:46:00,
2013-02-10 22:51:00,40.1,36.5,30.04,East,92,0.0,2.0,87,0.00,,,0.00,meteohub,2013-02-11 06:51:00,
2013-02-10 22:56:00,40.5,36.7,30.04,ENE,78,1.0,1.0,86,0.00,,,0.00,meteohub,2013-02-11 06:56:00,
2013-02-10 23:01:00,40.6,36.5,30.04,ENE,73,1.0,1.0,85,0.00,,,0.00,meteohub,2013-02-11 07:01:00,
2013-02-10 23:06:00,41.2,36.7,30.04,NNW,333,1.0,1.0,84,0.00,,,0.00,meteohub,2013-02-11 07:06:00,
2013-02-10 23:11:00,41.5,36.7,30.04,NE,35,2.0,2.0,83,0.00,,,0.00,meteohub,2013-02-11 07:11:00,
2013-02-10 23:16:00,41.9,36.9,30.04,NNW,344,1.0,1.0,82,0.00,,,0.00,meteohub,2013-02-11 07:16:00,
2013-02-10 23:22:00,41.4,36.3,30.04,WSW,254,1.0,1.0,82,0.00,,,0.00,meteohub,2013-02-11 07:22:00,
2013-02-10 23:28:00,40.8,36.1,30.04,WSW,253,0.0,2.0,83,0.00,,,0.00,meteohub,2013-02-11 07:28:00,
2013-02-10 23:33:00,40.5,36.0,30.04,ESE,123,0.0,1.0,84,0.00,,,0.00,meteohub,2013-02-11 07:33:00,
2013-02-10 23:38:00,39.9,35.4,30.04,ESE,122,0.0,1.0,84,0.00,,,0.00,meteohub,2013-02-11 07:38:00,
2013-02-10 23:43:00,39.7,35.6,30.04,ESE,122,0.0,1.0,85,0.00,,,0.00,meteohub,2013-02-11 07:43:00,
2013-02-10 23:48:00,39.6,35.8,30.04,ESE,123,0.0,1.0,86,0.00,,,0.00,meteohub,2013-02-11 07:48:00,
2013-02-10 23:53:00,39.2,35.4,30.04,NE,54,0.0,1.0,86,0.00,,,0.00,meteohub,2013-02-11 07:53:00,
2013-02-10 23:58:00,39.0,35.2,30.04,NE,54,0.0,1.0,86,0.00,,,0.00,meteohub,2013-02-11 07:58:00,